首页
METAR-TAF:

METAR-TAF

机场 :

盐湖城国际机场

盐湖城, 犹他州, 美国

纬度: 40-46-41N, 经度: 111-58-10W, 海拔: 1288米

当前天气观测

该预报发布于12分钟前的09:54 UTC
静风
温度 4°C
湿度 75%
气压 1021 hPa
能見度: 16.1公里
少量云层高于20000英尺
多云层高于25000英尺

METAR: KSLC 150954Z 00000KT 10SM FEW200 BKN250 04/00 A3014 RMK AO2 SLP194 T00390000

时间: 03:06 (10:06 UTC)

预报

该预报发布于1小时和15分钟前的08:51 UTC
预报有效从15日的 09点(UTC)到 16日的 12点(UTC)
风速4节,风向南转南东
能見度: 10公里
散云层高于20000英尺
从 15日的 1900点(UTC)
风速6节,风向西北
能見度: 10公里
多云层高于15000英尺
从 16日的 0300点(UTC)
风速3节,风向南转南东
能見度: 10公里
散云层高于8000英尺
多云层高于15000英尺
从 16日的 0800点(UTC)
风速6节,风向北转西北
能見度: 10公里
散云层高于8000英尺
多云层高于15000英尺

TAF: KSLC 150851Z 1509/1612 15004KT P6SM SCT200 FM151900 32006KT P6SM BKN150 FM160300 15003KT P6SM SCT080 BKN150 FM160800 33006KT P6SM SCT080 BKN150

超过4000个机场的气象观测和天气预报(METAR&TAF报告)。

可查询的气象台以黄色和红色小点在地图上表示。

将鼠标移到小点上方,可查看气象台名称。

然后点击查看天气观测和预报。

如需切换地图:点击带黑十字的绿色按钮放大地图;点击带横线的绿色按钮缩小地图;或者点击绿色箭头查看邻近地区的地图。


METAR-TAF: